Time;durP1;ratioP1;P1;durP2;ratioP2;P2;SDS_P1;SDS_P2;PMS_P1;PMS_P2;Temp;Humidity;BMP_temperature;BMP_pressure;BME280_temperature;BME280_humidity;BME280_pressure;Samples;Min_cycle;Max_cycle;Signal;HPM_P1;HPM_P2
2023/09/09 00:00:09;;;;;;;6.63;6.07;;;25.80;65.60;;;;;;5089987;28;20455;-72
2023/09/09 00:03:00;;;;;;;6.83;6.20;;;25.80;65.60;;;;;;5106281;28;20451;-72
2023/09/09 00:05:47;;;;;;;7.07;6.47;;;25.80;65.50;;;;;;5087064;28;20790;-72
2023/09/09 00:08:35;;;;;;;6.83;6.23;;;25.80;65.60;;;;;;5090267;28;20447;-72
2023/09/09 00:11:22;;;;;;;6.43;5.93;;;25.80;65.60;;;;;;5087441;28;20448;-72
2023/09/09 00:14:09;;;;;;;7.00;6.40;;;25.80;65.60;;;;;;5094844;28;20659;-72
2023/09/09 00:16:57;;;;;;;7.03;6.33;;;25.80;65.50;;;;;;5089712;28;20424;-72
2023/09/09 00:19:44;;;;;;;7.03;6.43;;;25.80;65.50;;;;;;5086609;28;20494;-72
2023/09/09 00:22:31;;;;;;;6.43;5.83;;;25.80;65.50;;;;;;5090281;28;20447;-72
2023/09/09 00:25:20;;;;;;;6.50;6.00;;;25.80;65.40;;;;;;5082904;28;20471;-72
2023/09/09 00:28:08;;;;;;;8.13;6.50;;;25.80;65.40;;;;;;5083120;28;20701;-72
2023/09/09 00:30:55;;;;;;;6.90;6.37;;;25.80;65.40;;;;;;5088288;28;21005;-72
2023/09/09 00:33:42;;;;;;;5.93;5.37;;;25.80;65.40;;;;;;5082538;28;21014;-71
2023/09/09 00:36:29;;;;;;;6.73;6.03;;;25.80;65.30;;;;;;5083935;28;20578;-72
2023/09/09 00:39:16;;;;;;;7.63;5.60;;;25.80;65.40;;;;;;5090190;28;20998;-72
2023/09/09 00:42:05;;;;;;;6.27;5.67;;;25.80;65.30;;;;;;5081519;28;21080;-72
2023/09/09 00:44:52;;;;;;;5.77;5.30;;;25.80;65.30;;;;;;5086212;28;21041;-72
2023/09/09 00:47:40;;;;;;;6.53;6.03;;;25.80;65.30;;;;;;5089857;28;20431;-72
2023/09/09 00:50:29;;;;;;;7.23;6.70;;;25.80;65.30;;;;;;5086100;28;20475;-72
2023/09/09 00:53:17;;;;;;;6.70;6.20;;;25.80;65.30;;;;;;5090063;28;20435;-71
2023/09/09 00:56:06;;;;;;;6.10;5.60;;;25.80;65.20;;;;;;5092847;28;20423;-72
2023/09/09 00:58:54;;;;;;;6.90;6.30;;;25.80;65.20;;;;;;5086232;28;20637;-72
2023/09/09 01:01:42;;;;;;;6.60;6.07;;;25.80;65.20;;;;;;5090079;28;20453;-72
2023/09/09 01:04:29;;;;;;;5.80;5.30;;;25.80;65.20;;;;;;5088026;28;20483;-72
2023/09/09 01:07:16;;;;;;;6.03;5.50;;;25.80;65.20;;;;;;5089734;28;20439;-72
2023/09/09 01:10:04;;;;;;;5.87;5.37;;;25.80;65.20;;;;;;5093659;28;20482;-72
2023/09/09 01:12:52;;;;;;;6.23;5.67;;;25.80;65.20;;;;;;5085676;28;20538;-72
2023/09/09 01:15:41;;;;;;;6.43;5.93;;;25.70;65.20;;;;;;5099293;28;20463;-71
2023/09/09 01:18:30;;;;;;;5.83;5.33;;;25.70;65.20;;;;;;5079725;28;20836;-72
2023/09/09 01:21:19;;;;;;;6.37;5.87;;;25.70;65.10;;;;;;5086866;28;20468;-72
2023/09/09 01:24:08;;;;;;;6.07;5.57;;;25.70;65.20;;;;;;5089635;28;20527;-72
2023/09/09 01:26:54;;;;;;;6.73;6.13;;;25.70;65.20;;;;;;5086822;28;20431;-72
2023/09/09 01:29:42;;;;;;;6.50;5.90;;;25.80;65.10;;;;;;5113696;28;20463;-72
2023/09/09 01:32:29;;;;;;;7.60;5.57;;;25.70;65.10;;;;;;5088503;28;20436;-72
2023/09/09 01:35:17;;;;;;;6.40;5.90;;;25.70;65.00;;;;;;5081909;28;20477;-72
2023/09/09 01:38:05;;;;;;;6.00;5.50;;;25.70;65.00;;;;;;5091586;28;20812;-72
2023/09/09 01:40:53;;;;;;;6.63;6.10;;;25.70;65.00;;;;;;5092666;28;20459;-72
2023/09/09 01:43:41;;;;;;;6.00;5.40;;;25.70;65.00;;;;;;5088301;28;21001;-72
2023/09/09 01:46:28;;;;;;;6.20;5.60;;;25.70;65.00;;;;;;5088017;28;20425;-72
2023/09/09 01:49:15;;;;;;;5.97;5.53;;;25.70;65.10;;;;;;5088432;28;20478;-72
2023/09/09 01:52:04;;;;;;;6.30;5.70;;;25.70;65.00;;;;;;5084498;28;20431;-72
2023/09/09 01:54:51;;;;;;;6.27;5.77;;;25.70;65.10;;;;;;5092741;28;21008;-72
2023/09/09 01:57:39;;;;;;;5.80;5.23;;;25.70;64.90;;;;;;5086694;28;20471;-72
2023/09/09 02:00:28;;;;;;;5.37;4.97;;;25.70;65.00;;;;;;5086257;28;20463;-72
2023/09/09 02:03:15;;;;;;;5.93;5.43;;;25.70;64.90;;;;;;5095718;28;20428;-72
2023/09/09 02:06:02;;;;;;;6.03;5.53;;;25.70;64.90;;;;;;5093602;28;20471;-72
2023/09/09 02:08:49;;;;;;;6.67;6.13;;;25.70;65.00;;;;;;5102179;28;20513;-72
2023/09/09 02:11:36;;;;;;;5.30;4.90;;;25.70;64.90;;;;;;5120283;27;20451;-72
2023/09/09 02:14:25;;;;;;;5.57;5.10;;;25.70;64.90;;;;;;5089261;28;20516;-72
2023/09/09 02:17:12;;;;;;;5.93;5.43;;;25.70;64.80;;;;;;5092711;28;20432;-72
2023/09/09 02:19:59;;;;;;;5.67;5.27;;;25.70;64.90;;;;;;5104853;28;20545;-72
2023/09/09 02:22:47;;;;;;;5.57;5.17;;;25.70;64.80;;;;;;5108968;28;20435;-72
2023/09/09 02:25:34;;;;;;;6.53;5.33;;;25.70;65.00;;;;;;5093719;28;20463;-72
2023/09/09 02:28:21;;;;;;;6.00;5.50;;;25.70;64.90;;;;;;5088304;28;20451;-72
2023/09/09 02:31:09;;;;;;;5.57;5.17;;;25.70;64.90;;;;;;5111257;28;20532;-72
2023/09/09 02:33:56;;;;;;;6.10;5.60;;;25.70;64.80;;;;;;5089430;27;20600;-72
2023/09/09 02:36:45;;;;;;;6.30;5.80;;;25.70;64.80;;;;;;5094630;28;20428;-72
2023/09/09 02:39:32;;;;;;;4.73;4.40;;;25.70;64.80;;;;;;5093153;28;20459;-72
2023/09/09 02:42:20;;;;;;;6.77;6.07;;;25.70;64.90;;;;;;5090092;28;20509;-72
2023/09/09 02:45:08;;;;;;;6.53;5.97;;;25.70;64.80;;;;;;5093992;28;20459;-72
2023/09/09 02:47:57;;;;;;;5.07;4.67;;;25.60;64.80;;;;;;5094952;28;20447;-72
2023/09/09 02:50:44;;;;;;;5.90;5.40;;;25.60;64.80;;;;;;5091322;28;20460;-72
2023/09/09 02:53:31;;;;;;;5.60;5.10;;;25.60;64.70;;;;;;5094852;28;20443;-72
2023/09/09 02:56:18;;;;;;;6.40;5.90;;;25.60;64.80;;;;;;5078090;28;20464;-72
2023/09/09 02:59:05;;;;;;;5.50;5.00;;;25.60;64.80;;;;;;5090973;28;20464;-72
2023/09/09 03:01:52;;;;;;;6.90;6.40;;;25.60;64.80;;;;;;5092592;28;20455;-72
2023/09/09 03:04:40;;;;;;;6.10;5.60;;;25.60;64.80;;;;;;5107158;27;20608;-72
2023/09/09 03:07:27;;;;;;;6.60;6.00;;;25.60;64.90;;;;;;5101255;28;20431;-72
2023/09/09 03:10:15;;;;;;;6.10;5.53;;;25.60;65.00;;;;;;5090104;28;20463;-72
2023/09/09 03:13:03;;;;;;;6.13;5.60;;;25.60;64.90;;;;;;5091391;28;20546;-72
2023/09/09 03:15:50;;;;;;;6.03;5.50;;;25.60;64.90;;;;;;5091567;28;20493;-72
2023/09/09 03:18:36;;;;;;;6.57;6.07;;;25.60;64.90;;;;;;5082792;28;21094;-72
2023/09/09 03:21:25;;;;;;;5.87;5.47;;;25.60;64.80;;;;;;5091432;28;20478;-72
2023/09/09 03:24:12;;;;;;;5.30;4.90;;;25.60;64.80;;;;;;5091594;28;20507;-71
2023/09/09 03:27:00;;;;;;;5.63;5.23;;;25.60;64.90;;;;;;5117828;27;20816;-72
2023/09/09 03:29:47;;;;;;;5.60;5.20;;;25.60;64.90;;;;;;5088785;28;20459;-72
2023/09/09 03:32:34;;;;;;;6.00;5.50;;;25.60;64.90;;;;;;5088199;28;20498;-72
2023/09/09 03:35:21;;;;;;;6.40;5.90;;;25.60;64.80;;;;;;5100409;28;20475;-72
2023/09/09 03:38:10;;;;;;;6.07;5.40;;;25.60;64.80;;;;;;5090795;28;20812;-72
2023/09/09 03:40:57;;;;;;;6.03;5.53;;;25.50;64.90;;;;;;5089041;28;20963;-72
2023/09/09 03:43:44;;;;;;;5.67;5.10;;;25.50;64.90;;;;;;5087357;28;20463;-72
2023/09/09 03:46:31;;;;;;;5.90;5.40;;;25.50;64.70;;;;;;5086541;28;20576;-72
2023/09/09 03:49:19;;;;;;;5.83;5.20;;;25.50;64.70;;;;;;5097570;28;20469;-72
2023/09/09 03:52:07;;;;;;;5.00;4.60;;;25.50;64.70;;;;;;5090455;28;20427;-72
2023/09/09 03:54:55;;;;;;;5.53;5.13;;;25.50;64.70;;;;;;5089866;28;20950;-71
2023/09/09 03:57:43;;;;;;;5.13;4.73;;;25.50;64.70;;;;;;5084138;28;20451;-72
2023/09/09 04:00:30;;;;;;;5.20;4.80;;;25.50;64.80;;;;;;5089917;28;20463;-72
2023/09/09 04:03:18;;;;;;;5.67;5.20;;;25.50;64.70;;;;;;5090238;28;20874;-72
2023/09/09 04:06:07;;;;;;;4.97;4.57;;;25.50;64.80;;;;;;5086978;28;20946;-72
2023/09/09 04:08:56;;;;;;;6.17;5.73;;;25.50;64.80;;;;;;5085050;28;20471;-72
2023/09/09 04:11:44;;;;;;;6.27;5.67;;;25.50;64.80;;;;;;5089661;28;20478;-72
2023/09/09 04:14:31;;;;;;;5.70;5.20;;;25.50;64.70;;;;;;5088177;28;20812;-72
2023/09/09 04:17:18;;;;;;;5.07;4.67;;;25.50;64.70;;;;;;5088483;28;20848;-72
2023/09/09 04:20:08;;;;;;;5.93;5.33;;;25.40;64.70;;;;;;5099047;28;20541;-72
2023/09/09 04:22:55;;;;;;;5.43;5.03;;;25.50;64.80;;;;;;5092982;28;20784;-72
2023/09/09 04:25:43;;;;;;;6.17;5.67;;;25.40;64.70;;;;;;5090002;28;20437;-72
2023/09/09 04:28:32;;;;;;;5.30;4.90;;;25.40;64.70;;;;;;5097492;28;20459;-72
2023/09/09 04:31:19;;;;;;;5.73;5.33;;;25.40;64.80;;;;;;5113675;27;20535;-72
2023/09/09 04:34:06;;;;;;;6.20;5.70;;;25.40;64.80;;;;;;5090753;28;20501;-72
2023/09/09 04:36:54;;;;;;;4.80;4.40;;;25.40;64.80;;;;;;5089354;28;20460;-72
2023/09/09 04:39:41;;;;;;;6.00;5.37;;;25.40;65.10;;;;;;5083604;28;20460;-72
2023/09/09 04:42:28;;;;;;;5.50;5.10;;;25.40;65.00;;;;;;5084157;28;20605;-72
2023/09/09 04:45:17;;;;;;;4.30;4.00;;;25.40;65.00;;;;;;5089999;28;20578;-72
2023/09/09 04:48:05;;;;;;;5.40;5.00;;;25.40;65.20;;;;;;5082720;28;20444;-72
2023/09/09 04:50:53;;;;;;;5.10;4.67;;;25.40;65.20;;;;;;5086112;28;20563;-72
2023/09/09 04:53:40;;;;;;;5.03;4.63;;;25.40;65.20;;;;;;5085216;28;20463;-72
2023/09/09 04:56:28;;;;;;;5.40;4.90;;;25.40;65.30;;;;;;5088576;28;21417;-72
2023/09/09 04:59:15;;;;;;;4.47;4.17;;;25.40;65.30;;;;;;5085878;28;20640;-72
2023/09/09 05:02:03;;;;;;;5.00;4.63;;;25.40;65.30;;;;;;5082983;28;20456;-72
2023/09/09 05:04:51;;;;;;;7.33;4.90;;;25.40;65.30;;;;;;5086198;28;20513;-72
2023/09/09 05:07:38;;;;;;;5.00;4.60;;;25.40;65.30;;;;;;5088932;28;20557;-72
2023/09/09 05:10:29;;;;;;;5.30;4.90;;;25.40;65.20;;;;;;5086313;28;20808;-72
2023/09/09 05:13:17;;;;;;;5.70;5.30;;;25.40;65.10;;;;;;5088698;28;20804;-72
2023/09/09 05:16:04;;;;;;;5.40;4.90;;;25.30;65.20;;;;;;5091346;28;20455;-72
2023/09/09 05:18:53;;;;;;;4.97;4.60;;;25.30;65.10;;;;;;5089600;27;20884;-72
2023/09/09 05:21:40;;;;;;;6.13;5.63;;;25.30;65.00;;;;;;5089167;28;20480;-72
2023/09/09 05:24:27;;;;;;;5.13;4.73;;;25.30;65.00;;;;;;5103098;28;20625;-72
2023/09/09 05:27:14;;;;;;;6.40;5.17;;;25.30;64.90;;;;;;5093994;28;20436;-72
2023/09/09 05:30:01;;;;;;;6.30;5.80;;;25.30;64.80;;;;;;5091718;28;20467;-72
2023/09/09 05:32:48;;;;;;;6.00;5.60;;;25.30;64.80;;;;;;5093940;28;21042;-72
2023/09/09 05:35:37;;;;;;;5.83;5.43;;;25.30;64.90;;;;;;5088588;28;20529;-72
2023/09/09 05:38:26;;;;;;;6.40;5.90;;;25.30;64.90;;;;;;5087413;28;20442;-72
2023/09/09 05:41:14;;;;;;;5.50;5.10;;;25.30;64.90;;;;;;5092629;28;20562;-72
2023/09/09 05:44:01;;;;;;;5.90;5.40;;;25.30;64.90;;;;;;5078136;28;20480;-72
2023/09/09 05:46:48;;;;;;;6.40;6.00;;;25.30;65.00;;;;;;5107733;28;20439;-72
2023/09/09 05:49:35;;;;;;;5.83;5.40;;;25.20;65.00;;;;;;5115145;27;20597;-72
2023/09/09 05:52:30;;;;;;;6.00;5.50;;;25.30;65.00;;;;;;5105903;28;20998;-72
2023/09/09 05:55:17;;;;;;;5.77;5.27;;;25.30;65.00;;;;;;5097771;28;20469;-72
2023/09/09 05:58:04;;;;;;;6.37;5.77;;;25.20;65.00;;;;;;5089288;28;20462;-72
2023/09/09 06:00:51;;;;;;;5.77;5.27;;;25.20;65.10;;;;;;5119395;27;20481;-72
2023/09/09 06:03:39;;;;;;;5.37;4.93;;;25.20;65.10;;;;;;5086059;28;20566;-71
2023/09/09 06:06:27;;;;;;;6.20;4.77;;;25.20;65.20;;;;;;5091237;28;20444;-72
2023/09/09 06:09:15;;;;;;;5.80;5.30;;;25.20;65.20;;;;;;5092464;28;20506;-71
2023/09/09 06:12:03;;;;;;;6.50;6.00;;;25.20;65.20;;;;;;5091041;28;20547;-72
2023/09/09 06:14:51;;;;;;;5.60;5.10;;;25.20;65.30;;;;;;5087986;28;20462;-72
2023/09/09 06:17:39;;;;;;;5.80;5.30;;;25.20;65.40;;;;;;5091286;28;20456;-72
2023/09/09 06:20:27;;;;;;;5.77;5.27;;;25.20;65.40;;;;;;5087168;28;20479;-72
2023/09/09 06:23:15;;;;;;;6.07;5.10;;;25.20;65.50;;;;;;5093194;28;20439;-72
2023/09/09 06:26:04;;;;;;;6.03;5.50;;;25.20;65.50;;;;;;5117713;27;20941;-72
2023/09/09 06:28:51;;;;;;;5.80;5.30;;;25.20;65.70;;;;;;5081108;28;20501;-72
2023/09/09 06:31:38;;;;;;;5.87;5.40;;;25.20;65.70;;;;;;5092945;28;20445;-72
2023/09/09 06:34:26;;;;;;;6.27;5.77;;;25.20;65.60;;;;;;5083383;28;20675;-72
2023/09/09 06:37:13;;;;;;;5.77;5.27;;;25.20;65.80;;;;;;5091762;28;20528;-72
2023/09/09 06:40:00;;;;;;;6.37;5.87;;;25.10;65.80;;;;;;5088145;28;20471;-72
2023/09/09 06:42:49;;;;;;;6.33;5.73;;;25.10;65.80;;;;;;5085810;28;20446;-72
2023/09/09 06:45:36;;;;;;;4.97;4.57;;;25.10;65.90;;;;;;5081779;28;20542;-72
2023/09/09 06:48:23;;;;;;;5.87;5.37;;;25.10;65.90;;;;;;5091175;27;20493;-72
2023/09/09 06:51:10;;;;;;;4.97;4.50;;;25.10;65.90;;;;;;5105437;28;20455;-72
2023/09/09 06:53:57;;;;;;;5.10;4.73;;;25.20;66.00;;;;;;5092141;28;20880;-72
2023/09/09 06:56:46;;;;;;;5.70;5.20;;;25.20;66.00;;;;;;5090866;28;20448;-72
2023/09/09 06:59:35;;;;;;;5.47;4.97;;;25.20;66.10;;;;;;5084771;28;20467;-72
2023/09/09 07:02:23;;;;;;;5.40;5.00;;;25.20;66.00;;;;;;5091671;28;20432;-72
2023/09/09 07:05:09;;;;;;;5.77;5.27;;;25.20;66.10;;;;;;5085241;28;20613;-72
2023/09/09 07:07:56;;;;;;;4.87;4.57;;;25.20;66.10;;;;;;5089973;28;20789;-72
2023/09/09 07:10:49;;;;;;;4.80;4.40;;;25.10;65.90;;;;;;5078353;28;20429;-72
2023/09/09 07:13:36;;;;;;;5.07;4.67;;;25.10;65.90;;;;;;5098353;28;20455;-72
2023/09/09 07:16:25;;;;;;;5.90;5.40;;;25.10;65.80;;;;;;5085250;27;20439;-72
2023/09/09 07:19:12;;;;;;;5.10;4.60;;;25.20;66.00;;;;;;5087979;28;20517;-72
2023/09/09 07:21:58;;;;;;;5.60;5.20;;;25.10;65.90;;;;;;5084781;28;20464;-72
2023/09/09 07:24:46;;;;;;;4.77;4.37;;;25.10;65.90;;;;;;5106861;28;20467;-72
2023/09/09 07:27:33;;;;;;;5.47;5.07;;;25.20;66.00;;;;;;5082922;28;20455;-72
2023/09/09 07:30:20;;;;;;;4.47;4.17;;;25.20;66.00;;;;;;5083752;28;20541;-72
2023/09/09 07:33:08;;;;;;;4.50;4.10;;;25.20;66.00;;;;;;5089299;28;20570;-72
2023/09/09 07:35:55;;;;;;;4.87;4.50;;;25.20;66.00;;;;;;5088655;28;20444;-72
2023/09/09 07:38:42;;;;;;;4.77;4.27;;;25.10;65.90;;;;;;5097048;28;20467;-72
2023/09/09 07:41:29;;;;;;;4.30;3.93;;;25.20;66.00;;;;;;5084710;28;20432;-72
2023/09/09 07:44:16;;;;;;;4.50;4.20;;;25.20;66.00;;;;;;5083229;28;20468;-72
2023/09/09 07:47:06;;;;;;;4.00;3.67;;;25.10;65.90;;;;;;5106074;28;20570;-72
2023/09/09 07:49:55;;;;;;;4.67;4.27;;;25.20;66.00;;;;;;5085966;28;20474;-71
2023/09/09 07:52:42;;;;;;;4.03;3.73;;;25.20;66.00;;;;;;5086277;28;20431;-71
2023/09/09 07:55:29;;;;;;;4.30;4.00;;;25.20;66.00;;;;;;5090421;28;20824;-71
2023/09/09 07:58:19;;;;;;;4.67;4.27;;;25.20;66.00;;;;;;5090974;28;20487;-71
2023/09/09 08:01:08;;;;;;;5.13;4.73;;;25.20;66.10;;;;;;5091720;28;20596;-71
2023/09/09 08:03:56;;;;;;;4.60;4.20;;;25.20;66.00;;;;;;5082382;28;20480;-71
2023/09/09 08:06:45;;;;;;;5.00;4.53;;;25.20;66.00;;;;;;5085727;28;20871;-71
2023/09/09 08:09:33;;;;;;;4.33;3.93;;;25.20;66.10;;;;;;5103193;28;20479;-71
2023/09/09 08:12:20;;;;;;;5.20;4.80;;;25.20;66.10;;;;;;5105060;28;20533;-71
2023/09/09 08:15:09;;;;;;;4.87;4.57;;;25.20;66.10;;;;;;5090693;28;20467;-71
2023/09/09 08:17:56;;;;;;;4.87;4.47;;;25.20;66.10;;;;;;5082333;28;20514;-71
2023/09/09 08:20:44;;;;;;;5.37;4.87;;;25.20;66.10;;;;;;5114478;27;20475;-72
2023/09/09 08:23:33;;;;;;;5.17;4.77;;;25.20;66.20;;;;;;5088958;28;20521;-71
2023/09/09 08:26:20;;;;;;;4.70;4.27;;;25.20;66.20;;;;;;5097400;28;20437;-71
2023/09/09 08:29:07;;;;;;;5.00;4.60;;;25.20;66.20;;;;;;5089662;28;20470;-71
2023/09/09 08:31:54;;;;;;;5.37;4.87;;;25.20;66.20;;;;;;5090999;27;20447;-72
2023/09/09 08:34:41;;;;;;;5.53;5.03;;;25.20;66.30;;;;;;5098890;28;20467;-72
2023/09/09 08:37:28;;;;;;;5.07;4.67;;;25.20;66.30;;;;;;5104554;28;20439;-72
2023/09/09 08:40:17;;;;;;;4.83;4.43;;;25.20;66.30;;;;;;5081804;28;20555;-71
2023/09/09 08:43:15;;;;;;;5.63;5.23;;;25.20;66.30;;;;;;5102208;28;20502;-72
2023/09/09 08:46:10;;;;;;;5.00;4.60;;;25.20;66.30;;;;;;5113672;27;20427;-72
2023/09/09 08:48:59;;;;;;;5.20;4.80;;;25.20;66.30;;;;;;5104725;28;20561;-72
2023/09/09 08:51:52;;;;;;;4.50;4.10;;;25.20;66.30;;;;;;5117726;27;20518;-72
2023/09/09 08:54:40;;;;;;;4.53;4.23;;;25.20;66.40;;;;;;5117520;27;20464;-72
2023/09/09 08:57:29;;;;;;;4.87;4.47;;;25.20;67.70;;;;;;5108244;28;20455;-72
2023/09/09 09:00:18;;;;;;;5.30;4.90;;;25.20;66.30;;;;;;5094408;28;20545;-71
2023/09/09 09:03:06;;;;;;;4.57;4.13;;;25.20;66.40;;;;;;5092447;28;20976;-71
2023/09/09 09:05:55;;;;;;;4.93;4.53;;;25.20;66.40;;;;;;5103990;28;20435;-72
2023/09/09 09:08:42;;;;;;;4.60;4.30;;;25.20;66.40;;;;;;5085128;28;20459;-71
2023/09/09 09:11:29;;;;;;;4.73;4.37;;;25.20;66.30;;;;;;5088118;28;20418;-71
2023/09/09 09:14:17;;;;;;;4.17;3.77;;;25.20;66.40;;;;;;5100346;28;20510;-71
2023/09/09 09:17:05;;;;;;;7.80;5.40;;;25.20;66.40;;;;;;5114879;27;20529;-71
2023/09/09 09:19:53;;;;;;;5.30;4.80;;;25.20;66.40;;;;;;5092676;28;20965;-71
2023/09/09 09:22:40;;;;;;;4.80;4.40;;;25.20;67.80;;;;;;5113762;27;20565;-72
2023/09/09 09:25:27;;;;;;;5.17;4.77;;;25.20;66.40;;;;;;5120043;27;20848;-72
2023/09/09 09:28:15;;;;;;;4.73;4.33;;;25.20;66.40;;;;;;5107502;28;20471;-71
2023/09/09 09:31:18;;;;;;;4.50;4.10;;;25.20;66.40;;;;;;5093067;28;20929;-71
2023/09/09 09:34:05;;;;;;;4.33;4.03;;;25.20;66.50;;;;;;5087958;28;20956;-72
2023/09/09 09:36:52;;;;;;;4.97;4.57;;;25.20;66.40;;;;;;5109720;28;20451;-72
2023/09/09 09:39:39;;;;;;;4.70;4.40;;;25.20;66.60;;;;;;5091800;28;20508;-71
2023/09/09 09:42:27;;;;;;;5.20;4.80;;;25.20;66.60;;;;;;5086151;28;20435;-71
2023/09/09 09:45:15;;;;;;;4.87;4.33;;;25.20;66.40;;;;;;5114144;27;20475;-72
2023/09/09 09:48:03;;;;;;;5.03;4.53;;;25.20;66.50;;;;;;5094055;28;20448;-72
2023/09/09 09:50:53;;;;;;;4.93;4.53;;;25.20;66.50;;;;;;5089953;28;20471;-71
2023/09/09 09:53:51;;;;;;;4.97;4.03;;;25.20;66.50;;;;;;5087970;28;20497;-72
2023/09/09 09:56:41;;;;;;;4.77;4.37;;;25.20;66.50;;;;;;5091594;28;20447;-72
2023/09/09 09:59:31;;;;;;;4.87;4.37;;;25.20;66.50;;;;;;5104588;28;20476;-72
2023/09/09 10:02:18;;;;;;;4.87;4.47;;;25.20;66.50;;;;;;5092715;28;20562;-72
2023/09/09 10:05:08;;;;;;;4.03;3.67;;;25.20;66.60;;;;;;5088916;28;20851;-72
2023/09/09 10:08:04;;;;;;;4.80;4.40;;;25.20;66.60;;;;;;5092414;28;20452;-72
2023/09/09 10:10:58;;;;;;;4.90;4.50;;;25.20;66.60;;;;;;5103944;28;20451;-72
2023/09/09 10:13:53;;;;;;;4.50;4.20;;;25.20;66.50;;;;;;5089589;28;20447;-72
2023/09/09 10:16:42;;;;;;;5.33;4.93;;;25.20;66.50;;;;;;5086297;28;20853;-72
2023/09/09 10:19:29;;;;;;;5.30;4.90;;;25.20;66.50;;;;;;5083174;28;20769;-72
2023/09/09 10:22:21;;;;;;;6.07;3.97;;;25.20;66.70;;;;;;5106927;28;20455;-72
2023/09/09 10:25:10;;;;;;;5.00;4.60;;;25.20;66.70;;;;;;5106167;28;20542;-72
2023/09/09 10:27:58;;;;;;;4.43;4.13;;;25.20;67.80;;;;;;5087416;28;20603;-71
2023/09/09 10:30:45;;;;;;;5.53;4.70;;;25.20;66.60;;;;;;5086371;28;20493;-72
2023/09/09 10:33:32;;;;;;;4.60;4.20;;;25.20;66.60;;;;;;5084314;28;20428;-72
2023/09/09 10:36:20;;;;;;;4.97;4.47;;;25.20;66.70;;;;;;5092828;28;20443;-72
2023/09/09 10:39:10;;;;;;;7.70;3.77;;;25.20;66.60;;;;;;5089185;28;20466;-72
2023/09/09 10:41:58;;;;;;;8.63;4.93;;;25.20;66.70;;;;;;5086580;28;20451;-70
2023/09/09 10:44:47;;;;;;;8.40;6.20;;;25.30;69.40;;;;;;5085150;28;20843;-71
2023/09/09 10:47:35;;;;;;;6.97;6.27;;;25.40;68.20;;;;;;5084043;28;20494;-72
2023/09/09 10:50:22;;;;;;;10.80;6.33;;;25.40;68.30;;;;;;5096423;28;20471;-72
2023/09/09 10:53:18;;;;;;;8.33;5.90;;;25.40;68.30;;;;;;5086580;28;20452;-72
2023/09/09 10:56:24;;;;;;;7.00;6.30;;;25.40;68.30;;;;;;5086337;28;20973;-71
2023/09/09 10:59:16;;;;;;;7.87;6.00;;;25.30;68.00;;;;;;5098065;28;20530;-71
2023/09/09 11:02:11;;;;;;;5.97;5.47;;;25.30;69.40;;;;;;5084311;28;20597;-72
2023/09/09 11:05:00;;;;;;;10.00;6.13;;;25.30;67.90;;;;;;5086024;28;20549;-72
2023/09/09 11:07:48;;;;;;;6.33;5.70;;;25.30;68.10;;;;;;5109718;27;20807;-72
2023/09/09 11:10:35;;;;;;;8.07;5.77;;;25.30;68.00;;;;;;5078252;28;20568;-72
2023/09/09 11:13:38;;;;;;;6.37;5.40;;;25.30;67.90;;;;;;5084232;28;20463;-72
2023/09/09 11:16:27;;;;;;;5.70;5.20;;;25.30;67.90;;;;;;5098567;27;20491;-72
2023/09/09 11:19:16;;;;;;;4.97;4.50;;;25.30;67.90;;;;;;5075973;28;20507;-72
2023/09/09 11:22:05;;;;;;;5.40;4.90;;;25.30;67.70;;;;;;5077980;28;21181;-72
2023/09/09 11:24:54;;;;;;;6.00;5.43;;;25.40;67.70;;;;;;5079835;28;20849;-72
2023/09/09 11:27:41;;;;;;;6.17;5.43;;;25.30;67.70;;;;;;5077727;28;20781;-72
2023/09/09 11:30:41;;;;;;;5.43;4.93;;;25.30;67.60;;;;;;5077382;28;20617;-72
2023/09/09 11:33:28;;;;;;;5.57;5.10;;;25.30;67.60;;;;;;5083789;27;20978;-72
2023/09/09 11:36:19;;;;;;;5.80;4.90;;;25.30;67.60;;;;;;5079476;28;21754;-72
2023/09/09 11:39:08;;;;;;;5.87;4.63;;;25.40;67.70;;;;;;5080462;28;20475;-72
2023/09/09 11:41:55;;;;;;;5.73;5.10;;;25.40;67.70;;;;;;5081360;28;20630;-72
2023/09/09 11:44:43;;;;;;;5.20;4.70;;;25.40;67.80;;;;;;5079673;28;20475;-72
2023/09/09 11:47:33;;;;;;;5.33;4.83;;;25.40;67.60;;;;;;5112688;27;20617;-71
2023/09/09 11:50:19;;;;;;;5.50;5.00;;;25.40;67.70;;;;;;5083438;28;20487;-72
2023/09/09 11:53:08;;;;;;;5.33;4.83;;;25.50;67.70;;;;;;5083017;28;20485;-72
2023/09/09 11:55:56;;;;;;;5.73;5.10;;;25.50;67.50;;;;;;5084342;28;20907;-72
2023/09/09 11:58:43;;;;;;;5.53;4.77;;;25.50;67.50;;;;;;5080032;28;20455;-72
2023/09/09 12:01:40;;;;;;;6.40;5.30;;;25.50;67.60;;;;;;5101379;28;20805;-71
2023/09/09 12:04:29;;;;;;;5.30;4.80;;;25.50;67.50;;;;;;5086907;28;20640;-67
2023/09/09 12:07:16;;;;;;;6.43;5.00;;;25.50;67.40;;;;;;5081152;28;20865;-67
2023/09/09 12:10:12;;;;;;;7.80;5.30;;;25.50;67.50;;;;;;5092868;28;20645;-66
2023/09/09 12:12:59;;;;;;;6.10;5.60;;;25.50;67.50;;;;;;5077017;28;20436;-66
2023/09/09 12:15:47;;;;;;;6.07;5.43;;;25.50;67.60;;;;;;5079295;28;20688;-67
2023/09/09 12:18:55;;;;;;;5.70;5.20;;;25.50;67.70;;;;;;5091037;28;20476;-66
2023/09/09 12:21:48;;;;;;;6.97;5.50;;;25.50;67.70;;;;;;5088107;28;20423;-66
2023/09/09 12:24:42;;;;;;;6.13;5.40;;;25.50;67.70;;;;;;5083274;28;20471;-66
2023/09/09 12:27:41;;;;;;;7.00;5.07;;;25.50;67.70;;;;;;5078918;28;20442;-67
2023/09/09 12:30:35;;;;;;;5.23;4.70;;;25.50;67.70;;;;;;5111097;27;20442;-67
2023/09/09 12:33:22;;;;;;;5.70;5.20;;;25.50;67.80;;;;;;5078196;28;20534;-67
2023/09/09 12:36:18;;;;;;;5.87;4.50;;;25.50;67.70;;;;;;5080760;28;20812;-67
2023/09/09 12:39:11;;;;;;;6.47;5.87;;;25.50;67.60;;;;;;5092157;28;20462;-67
2023/09/09 12:41:59;;;;;;;6.20;4.93;;;25.50;67.60;;;;;;5097201;28;20431;-67
2023/09/09 12:44:51;;;;;;;6.63;5.30;;;25.50;67.60;;;;;;5093319;28;20475;-66
2023/09/09 12:47:37;;;;;;;7.53;4.73;;;25.50;67.50;;;;;;5110766;28;20467;-66
2023/09/09 12:50:26;;;;;;;5.20;4.80;;;25.60;68.10;;;;;;5079044;28;20478;-66
2023/09/09 12:53:13;;;;;;;6.17;5.10;;;25.60;67.40;;;;;;5079206;28;20570;-67
2023/09/09 12:56:01;;;;;;;6.30;4.20;;;25.60;67.30;;;;;;5082288;28;21420;-66
2023/09/09 12:58:49;;;;;;;5.97;5.38;;;25.60;67.20;;;;;;5081062;28;20469;-67
2023/09/09 13:01:36;;;;;;;6.97;6.00;;;25.60;66.90;;;;;;5098047;28;20629;-67
2023/09/09 13:04:24;;;;;;;5.43;4.57;;;25.60;66.90;;;;;;5111177;27;20467;-66
2023/09/09 13:07:11;;;;;;;6.17;5.20;;;25.60;66.90;;;;;;5082554;28;20846;-66
2023/09/09 13:09:58;;;;;;;6.78;5.30;;;25.60;67.00;;;;;;5080142;28;20505;-66
2023/09/09 13:12:46;;;;;;;5.20;4.40;;;25.70;67.30;;;;;;5081379;28;20202;-66
2023/09/09 13:15:33;;;;;;;6.63;5.93;;;25.70;67.00;;;;;;5082919;28;20521;-67
2023/09/09 13:18:21;;;;;;;4.93;4.43;;;25.70;66.90;;;;;;5093166;28;20479;-67
2023/09/09 13:21:08;;;;;;;5.97;5.07;;;25.70;66.90;;;;;;5110842;28;20597;-66
2023/09/09 13:23:55;;;;;;;6.73;5.07;;;25.70;66.80;;;;;;5085519;28;20455;-66
2023/09/09 13:26:42;;;;;;;6.03;5.50;;;25.70;66.90;;;;;;5079648;28;20447;-66
2023/09/09 13:29:30;;;;;;;8.33;5.63;;;25.70;67.20;;;;;;5084938;28;20608;-66
2023/09/09 13:32:17;;;;;;;5.53;4.77;;;25.60;67.00;;;;;;5083494;28;20812;-72
2023/09/09 13:35:05;;;;;;;5.67;5.17;;;25.70;67.20;;;;;;5097678;28;20847;-72
2023/09/09 13:37:53;;;;;;;5.37;4.13;;;25.70;67.10;;;;;;5088429;28;20463;-72
2023/09/09 13:40:39;;;;;;;10.27;5.00;;;25.70;67.20;;;;;;5083887;28;21117;-72
2023/09/09 13:43:27;;;;;;;5.03;4.57;;;25.70;67.30;;;;;;5077544;28;20472;-72
2023/09/09 13:46:15;;;;;;;5.10;4.70;;;25.70;67.30;;;;;;5081735;28;20444;-72
2023/09/09 13:49:02;;;;;;;6.63;5.23;;;25.70;67.30;;;;;;5083459;27;20833;-72
2023/09/09 13:51:50;;;;;;;5.70;5.20;;;25.70;67.40;;;;;;5089475;28;20454;-72
2023/09/09 13:54:37;;;;;;;5.70;5.20;;;25.70;67.40;;;;;;5089463;28;20831;-72
2023/09/09 13:57:24;;;;;;;5.47;4.97;;;25.70;67.50;;;;;;5085433;28;20471;-73
2023/09/09 14:00:12;;;;;;;6.53;4.73;;;25.70;67.60;;;;;;5082570;28;20558;-72
2023/09/09 14:03:00;;;;;;;5.60;5.20;;;25.70;67.50;;;;;;5090491;28;20505;-72
2023/09/09 14:05:48;;;;;;;5.57;4.97;;;25.70;67.60;;;;;;5080972;28;20535;-72
2023/09/09 14:08:34;;;;;;;5.63;5.17;;;25.70;67.50;;;;;;5087334;28;20464;-72
2023/09/09 14:11:22;;;;;;;4.90;4.50;;;25.70;67.60;;;;;;5086603;28;20998;-72
2023/09/09 14:14:09;;;;;;;4.93;4.50;;;25.70;67.60;;;;;;5088027;28;20725;-72
2023/09/09 14:16:56;;;;;;;5.30;4.83;;;25.70;67.60;;;;;;5081862;28;20501;-72
2023/09/09 14:19:45;;;;;;;5.70;4.80;;;25.70;67.70;;;;;;5100313;28;20557;-72
2023/09/09 14:22:32;;;;;;;5.27;4.77;;;25.70;69.00;;;;;;5088515;28;20491;-72
2023/09/09 14:25:18;;;;;;;4.63;4.20;;;25.70;67.80;;;;;;5095553;28;20480;-72
2023/09/09 14:28:06;;;;;;;4.87;4.47;;;25.70;67.60;;;;;;5081644;28;20468;-72
2023/09/09 14:30:53;;;;;;;5.60;4.60;;;25.70;67.60;;;;;;5083628;28;20447;-72
2023/09/09 14:33:39;;;;;;;5.53;4.93;;;25.80;67.40;;;;;;5086380;28;20464;-72